sensor_id;sensor_type;location;lat;lon;timestamp;pressure;altitude;pressure_sealevel;temperature;humidity
55656;BME280;41530;52.382;5.270;2023-02-13T00:00:17;104048.00;;;15.21;54.12
55656;BME280;41530;52.382;5.270;2023-02-13T00:02:43;104047.97;;;15.23;54.10
55656;BME280;41530;52.382;5.270;2023-02-13T00:05:10;104040.00;;;15.23;53.91
55656;BME280;41530;52.382;5.270;2023-02-13T00:07:37;104047.09;;;15.22;53.96
55656;BME280;41530;52.382;5.270;2023-02-13T00:10:04;104043.63;;;15.20;54.06
55656;BME280;41530;52.382;5.270;2023-02-13T00:12:30;104040.06;;;15.21;53.82
55656;BME280;41530;52.382;5.270;2023-02-13T00:14:57;104033.16;;;15.17;53.77
55656;BME280;41530;52.382;5.270;2023-02-13T00:17:24;104036.53;;;15.21;53.80
55656;BME280;41530;52.382;5.270;2023-02-13T00:19:51;104030.50;;;15.17;53.74
55656;BME280;41530;52.382;5.270;2023-02-13T00:22:18;104035.66;;;15.20;53.62
55656;BME280;41530;52.382;5.270;2023-02-13T00:24:44;104026.13;;;15.16;53.71
55656;BME280;41530;52.382;5.270;2023-02-13T00:27:11;104028.72;;;15.18;53.55
55656;BME280;41530;52.382;5.270;2023-02-13T00:29:38;104013.84;;;15.14;53.63
55656;BME280;41530;52.382;5.270;2023-02-13T00:32:04;104020.88;;;15.15;53.71
55656;BME280;41530;52.382;5.270;2023-02-13T00:34:31;104024.34;;;15.17;53.46
55656;BME280;41530;52.382;5.270;2023-02-13T00:36:58;104020.81;;;15.16;53.71
55656;BME280;41530;52.382;5.270;2023-02-13T00:39:24;104017.25;;;15.17;53.46
55656;BME280;41530;52.382;5.270;2023-02-13T00:41:51;104015.69;;;15.12;53.58
55656;BME280;41530;52.382;5.270;2023-02-13T00:44:18;104022.59;;;15.16;53.30
55656;BME280;41530;52.382;5.270;2023-02-13T00:46:44;104024.44;;;15.14;53.58
55656;BME280;41530;52.382;5.270;2023-02-13T00:49:11;104022.56;;;15.17;53.47
55656;BME280;41530;52.382;5.270;2023-02-13T00:51:37;104025.19;;;15.17;53.36
55656;BME280;41530;52.382;5.270;2023-02-13T00:54:04;104032.28;;;15.17;53.26
55656;BME280;41530;52.382;5.270;2023-02-13T00:56:30;104027.09;;;15.14;53.22
55656;BME280;41530;52.382;5.270;2023-02-13T00:58:57;104016.50;;;15.14;53.24
55656;BME280;41530;52.382;5.270;2023-02-13T01:01:24;104021.91;;;15.11;53.42
55656;BME280;41530;52.382;5.270;2023-02-13T01:03:50;104023.53;;;15.15;53.31
55656;BME280;41530;52.382;5.270;2023-02-13T01:06:17;104021.78;;;15.14;53.31
55656;BME280;41530;52.382;5.270;2023-02-13T01:08:43;104025.31;;;15.14;53.24
55656;BME280;41530;52.382;5.270;2023-02-13T01:11:10;104023.53;;;15.15;53.15
55656;BME280;41530;52.382;5.270;2023-02-13T01:13:37;104031.47;;;15.15;53.25
55656;BME280;41530;52.382;5.270;2023-02-13T01:16:03;104022.66;;;15.14;53.12
55656;BME280;41530;52.382;5.270;2023-02-13T01:18:30;104018.38;;;15.10;53.30
55656;BME280;41530;52.382;5.270;2023-02-13T01:21:03;104022.72;;;15.13;53.18
55656;BME280;41530;52.382;5.270;2023-02-13T01:23:32;104019.25;;;15.11;53.02
55656;BME280;41530;52.382;5.270;2023-02-13T01:25:59;104015.78;;;15.09;53.44
55656;BME280;41530;52.382;5.270;2023-02-13T01:28:26;104026.28;;;15.12;53.20
55656;BME280;41530;52.382;5.270;2023-02-13T01:30:54;104023.63;;;15.12;53.05
55656;BME280;41530;52.382;5.270;2023-02-13T01:33:23;104021.84;;;15.12;53.07
55656;BME280;41530;52.382;5.270;2023-02-13T01:35:50;104022.72;;;15.13;53.36
55656;BME280;41530;52.382;5.270;2023-02-13T01:38:17;104014.97;;;15.07;52.98
55656;BME280;41530;52.382;5.270;2023-02-13T01:40:49;104023.63;;;15.12;53.01
55656;BME280;41530;52.382;5.270;2023-02-13T01:43:17;104025.44;;;15.11;53.10
55656;BME280;41530;52.382;5.270;2023-02-13T01:45:46;104016.66;;;15.09;53.84
55656;BME280;41530;52.382;5.270;2023-02-13T01:48:17;104020.13;;;15.11;53.54
55656;BME280;41530;52.382;5.270;2023-02-13T01:50:49;104021.00;;;15.12;53.05
55656;BME280;41530;52.382;5.270;2023-02-13T01:53:18;104020.06;;;15.13;53.09
55656;BME280;41530;52.382;5.270;2023-02-13T01:55:54;104006.00;;;15.11;52.89
55656;BME280;41530;52.382;5.270;2023-02-13T01:58:24;104006.09;;;15.08;53.15
55656;BME280;41530;52.382;5.270;2023-02-13T02:00:52;104018.38;;;15.10;53.33
55656;BME280;41530;52.382;5.270;2023-02-13T02:03:35;104006.00;;;15.11;53.05
55656;BME280;41530;52.382;5.270;2023-02-13T02:06:03;104002.38;;;15.13;53.06
55656;BME280;41530;52.382;5.270;2023-02-13T02:08:32;104003.34;;;15.11;53.15
55656;BME280;41530;52.382;5.270;2023-02-13T02:11:06;103996.38;;;15.08;52.89
55656;BME280;41530;52.382;5.270;2023-02-13T02:13:35;103997.16;;;15.10;53.18
55656;BME280;41530;52.382;5.270;2023-02-13T02:16:01;104000.75;;;15.09;53.05
55656;BME280;41530;52.382;5.270;2023-02-13T02:18:28;103991.88;;;15.10;53.31
55656;BME280;41530;52.382;5.270;2023-02-13T02:45:53;104004.25;;;15.10;53.06
55656;BME280;41530;52.382;5.270;2023-02-13T02:54:33;103990.19;;;15.08;53.20
55656;BME280;41530;52.382;5.270;2023-02-13T02:57:41;103981.38;;;15.07;52.90
55656;BME280;41530;52.382;5.270;2023-02-13T03:00:28;103988.41;;;15.08;53.02
55656;BME280;41530;52.382;5.270;2023-02-13T03:03:18;103986.63;;;15.09;53.11
55656;BME280;41530;52.382;5.270;2023-02-13T03:06:12;103985.75;;;15.08;52.99
55656;BME280;41530;52.382;5.270;2023-02-13T03:08:43;103992.84;;;15.08;52.94
55656;BME280;41530;52.382;5.270;2023-02-13T03:11:29;103979.69;;;15.05;53.37
55656;BME280;41530;52.382;5.270;2023-02-13T03:14:18;103975.34;;;15.04;53.20
55656;BME280;41530;52.382;5.270;2023-02-13T03:16:46;103982.34;;;15.05;53.07
55656;BME280;41530;52.382;5.270;2023-02-13T03:22:40;103984.94;;;15.06;52.89
55656;BME280;41530;52.382;5.270;2023-02-13T03:25:28;103988.47;;;15.07;53.37
55656;BME280;41530;52.382;5.270;2023-02-13T03:28:21;103989.31;;;15.07;53.13
55656;BME280;41530;52.382;5.270;2023-02-13T03:34:17;103987.59;;;15.06;53.19
55656;BME280;41530;52.382;5.270;2023-02-13T03:37:04;103988.47;;;15.07;53.05
55656;BME280;41530;52.382;5.270;2023-02-13T03:40:03;103986.72;;;15.06;53.03
55656;BME280;41530;52.382;5.270;2023-02-13T03:42:52;103979.78;;;15.03;53.09
55656;BME280;41530;52.382;5.270;2023-02-13T03:45:29;103978.78;;;15.06;52.90
55656;BME280;41530;52.382;5.270;2023-02-13T03:48:21;103987.59;;;15.06;52.89
55656;BME280;41530;52.382;5.270;2023-02-13T03:51:16;103979.63;;;15.06;53.23
55656;BME280;41530;52.382;5.270;2023-02-13T03:53:47;103980.56;;;15.05;53.30
55656;BME280;41530;52.382;5.270;2023-02-13T03:56:18;103976.13;;;15.06;53.07
55656;BME280;41530;52.382;5.270;2023-02-13T03:59:07;103969.25;;;15.02;53.58
55656;BME280;41530;52.382;5.270;2023-02-13T04:02:29;103972.75;;;15.02;53.50
55656;BME280;41530;52.382;5.270;2023-02-13T04:05:02;103980.56;;;15.05;53.11
55656;BME280;41530;52.382;5.270;2023-02-13T04:07:32;103978.91;;;15.03;53.38
55656;BME280;41530;52.382;5.270;2023-02-13T04:10:03;103984.06;;;15.06;53.05
55656;BME280;41530;52.382;5.270;2023-02-13T04:15:03;103984.03;;;15.07;52.93
55656;BME280;41530;52.382;5.270;2023-02-13T04:17:37;103976.13;;;15.06;53.07
55656;BME280;41530;52.382;5.270;2023-02-13T04:20:06;103975.41;;;15.02;53.62
55656;BME280;41530;52.382;5.270;2023-02-13T04:22:33;103977.84;;;15.07;53.41
55656;BME280;41530;52.382;5.270;2023-02-13T04:25:00;103974.34;;;15.06;53.17
55656;BME280;41530;52.382;5.270;2023-02-13T04:27:27;103966.53;;;15.03;53.15
55656;BME280;41530;52.382;5.270;2023-02-13T04:29:54;103978.78;;;15.06;52.91
55656;BME280;41530;52.382;5.270;2023-02-13T04:32:21;103962.09;;;15.04;52.92
55656;BME280;41530;52.382;5.270;2023-02-13T04:34:47;103957.75;;;15.01;52.89
55656;BME280;41530;52.382;5.270;2023-02-13T04:37:14;103966.44;;;15.05;52.90
55656;BME280;41530;52.382;5.270;2023-02-13T04:39:40;103961.13;;;15.05;52.80
55656;BME280;41530;52.382;5.270;2023-02-13T04:42:07;103964.66;;;15.05;52.85
55656;BME280;41530;52.382;5.270;2023-02-13T04:44:33;103972.59;;;15.05;52.94
55656;BME280;41530;52.382;5.270;2023-02-13T04:47:00;103976.28;;;15.03;52.81
55656;BME280;41530;52.382;5.270;2023-02-13T04:49:27;103966.44;;;15.05;52.77
55656;BME280;41530;52.382;5.270;2023-02-13T04:51:53;103963.00;;;15.03;52.76
55656;BME280;41530;52.382;5.270;2023-02-13T04:54:20;103942.06;;;14.95;52.73
55656;BME280;41530;52.382;5.270;2023-02-13T04:56:46;103949.81;;;15.01;52.78
55656;BME280;41530;52.382;5.270;2023-02-13T04:59:13;103937.53;;;14.98;52.94
55656;BME280;41530;52.382;5.270;2023-02-13T05:01:39;103945.31;;;15.03;52.63
55656;BME280;41530;52.382;5.270;2023-02-13T05:04:06;103944.44;;;15.03;52.66
55656;BME280;41530;52.382;5.270;2023-02-13T05:06:33;103946.25;;;15.02;52.64
55656;BME280;41530;52.382;5.270;2023-02-13T05:08:59;103950.63;;;15.03;52.68
55656;BME280;41530;52.382;5.270;2023-02-13T05:11:26;103940.19;;;14.98;52.40
55656;BME280;41530;52.382;5.270;2023-02-13T05:13:52;103943.59;;;15.02;52.64
55656;BME280;41530;52.382;5.270;2023-02-13T05:16:19;103942.66;;;15.03;52.65
55656;BME280;41530;52.382;5.270;2023-02-13T05:18:45;103937.47;;;15.00;52.75
55656;BME280;41530;52.382;5.270;2023-02-13T05:21:12;103942.72;;;15.02;52.59
55656;BME280;41530;52.382;5.270;2023-02-13T05:23:57;103940.19;;;14.98;52.61
55656;BME280;41530;52.382;5.270;2023-02-13T05:26:24;103946.28;;;15.01;53.01
55656;BME280;41530;52.382;5.270;2023-02-13T05:28:50;103946.28;;;15.01;52.75
55656;BME280;41530;52.382;5.270;2023-02-13T05:31:35;103943.63;;;15.01;52.78
55656;BME280;41530;52.382;5.270;2023-02-13T05:34:02;103948.03;;;15.02;52.52
55656;BME280;41530;52.382;5.270;2023-02-13T05:36:29;103941.97;;;14.98;52.68
55656;BME280;41530;52.382;5.270;2023-02-13T05:38:55;103950.69;;;15.02;52.65
55656;BME280;41530;52.382;5.270;2023-02-13T05:41:22;103945.44;;;15.00;52.71
55656;BME280;41530;52.382;5.270;2023-02-13T05:43:48;103943.69;;;14.99;52.76
55656;BME280;41530;52.382;5.270;2023-02-13T05:46:15;103937.53;;;14.98;52.66
55656;BME280;41530;52.382;5.270;2023-02-13T05:48:42;103944.56;;;15.00;52.42
55656;BME280;41530;52.382;5.270;2023-02-13T05:51:08;103941.97;;;14.98;52.54
55656;BME280;41530;52.382;5.270;2023-02-13T05:53:35;103945.44;;;15.00;52.63
55656;BME280;41530;52.382;5.270;2023-02-13T05:56:03;103922.97;;;14.87;52.67
55656;BME280;41530;52.382;5.270;2023-02-13T05:58:31;103941.00;;;15.01;52.63
55656;BME280;41530;52.382;5.270;2023-02-13T06:00:58;103937.47;;;15.00;52.63
55656;BME280;41530;52.382;5.270;2023-02-13T06:03:26;103936.59;;;15.00;52.66
55656;BME280;41530;52.382;5.270;2023-02-13T06:05:54;103933.97;;;15.00;52.55
55656;BME280;41530;52.382;5.270;2023-02-13T06:08:21;103937.53;;;14.98;52.63
55656;BME280;41530;52.382;5.270;2023-02-13T06:10:48;103941.91;;;15.00;52.67
55656;BME280;41530;52.382;5.270;2023-02-13T06:13:16;103943.75;;;14.97;52.45
55656;BME280;41530;52.382;5.270;2023-02-13T06:15:43;103938.56;;;14.94;52.55
55656;BME280;41530;52.382;5.270;2023-02-13T06:18:10;103953.44;;;14.98;52.42
55656;BME280;41530;52.382;5.270;2023-02-13T06:20:37;103953.44;;;14.98;53.39
55656;BME280;41530;52.382;5.270;2023-02-13T06:23:04;103953.56;;;14.95;53.22
55656;BME280;41530;52.382;5.270;2023-02-13T06:25:30;103947.22;;;15.00;52.99
55656;BME280;41530;52.382;5.270;2023-02-13T06:27:57;103949.13;;;14.96;53.16
55656;BME280;41530;52.382;5.270;2023-02-13T06:30:23;103963.13;;;15.00;52.98
55656;BME280;41530;52.382;5.270;2023-02-13T06:32:50;103954.41;;;14.96;53.51
55656;BME280;41530;52.382;5.270;2023-02-13T06:35:17;103948.09;;;15.00;53.02
55656;BME280;41530;52.382;5.270;2023-02-13T06:37:43;103954.25;;;15.01;53.04
55656;BME280;41530;52.382;5.270;2023-02-13T06:40:11;103947.28;;;14.98;52.96
55656;BME280;41530;52.382;5.270;2023-02-13T06:42:38;103959.56;;;15.01;53.00
55656;BME280;41530;52.382;5.270;2023-02-13T06:45:05;103957.75;;;15.01;52.83
55656;BME280;41530;52.382;5.270;2023-02-13T06:47:32;103950.03;;;14.95;53.03
55656;BME280;41530;52.382;5.270;2023-02-13T06:49:59;103956.84;;;15.02;52.99
55656;BME280;41530;52.382;5.270;2023-02-13T06:52:26;103961.28;;;15.02;52.86
55656;BME280;41530;52.382;5.270;2023-02-13T06:54:52;103956.19;;;14.95;53.26
55656;BME280;41530;52.382;5.270;2023-02-13T06:57:19;103964.03;;;14.98;53.06
55656;BME280;41530;52.382;5.270;2023-02-13T06:59:45;103959.56;;;15.01;52.97
55656;BME280;41530;52.382;5.270;2023-02-13T07:02:12;103962.31;;;14.97;52.98
55656;BME280;41530;52.382;5.270;2023-02-13T07:04:39;103970.22;;;14.99;53.15
55656;BME280;41530;52.382;5.270;2023-02-13T07:07:06;103963.19;;;14.98;53.16
55656;BME280;41530;52.382;5.270;2023-02-13T07:09:32;103973.63;;;15.03;53.23
55656;BME280;41530;52.382;5.270;2023-02-13T07:12:03;103966.63;;;15.00;53.35
55656;BME280;41530;52.382;5.270;2023-02-13T07:14:30;103963.22;;;14.96;53.25
55656;BME280;41530;52.382;5.270;2023-02-13T07:16:57;103979.91;;;15.00;53.22
55656;BME280;41530;52.382;5.270;2023-02-13T07:19:23;103980.72;;;15.02;53.22
55656;BME280;41530;52.382;5.270;2023-02-13T07:21:50;103987.78;;;15.02;53.11
55656;BME280;41530;52.382;5.270;2023-02-13T07:24:16;103983.34;;;15.02;53.16
55656;BME280;41530;52.382;5.270;2023-02-13T07:26:43;103983.47;;;14.99;53.71
55656;BME280;41530;52.382;5.270;2023-02-13T07:29:09;103981.75;;;14.98;53.88
55656;BME280;41530;52.382;5.270;2023-02-13T07:31:38;103982.53;;;15.00;53.46
55656;BME280;41530;52.382;5.270;2023-02-13T07:34:06;103980.88;;;14.97;53.97
55656;BME280;41530;52.382;5.270;2023-02-13T07:36:33;103980.81;;;14.99;53.83
55656;BME280;41530;52.382;5.270;2023-02-13T07:38:59;103986.00;;;15.02;53.58
55656;BME280;41530;52.382;5.270;2023-02-13T07:41:26;103980.81;;;14.99;54.00
55656;BME280;41530;52.382;5.270;2023-02-13T07:43:53;103979.94;;;14.98;54.22
55656;BME280;41530;52.382;5.270;2023-02-13T07:46:19;103987.78;;;15.02;54.07
55656;BME280;41530;52.382;5.270;2023-02-13T07:48:46;103981.63;;;15.01;54.04
55656;BME280;41530;52.382;5.270;2023-02-13T07:51:13;103992.13;;;15.04;53.77
55656;BME280;41530;52.382;5.270;2023-02-13T07:53:39;103990.31;;;15.05;53.99
55656;BME280;41530;52.382;5.270;2023-02-13T07:56:07;103992.97;;;15.05;53.84
55656;BME280;41530;52.382;5.270;2023-02-13T07:58:35;103997.34;;;15.06;54.02
55656;BME280;41530;52.382;5.270;2023-02-13T08:01:10;103995.56;;;15.06;54.32
55656;BME280;41530;52.382;5.270;2023-02-13T08:03:37;104000.00;;;15.06;54.19
55656;BME280;41530;52.382;5.270;2023-02-13T08:06:04;103994.69;;;15.06;53.98
55656;BME280;41530;52.382;5.270;2023-02-13T08:08:31;103997.44;;;15.04;54.25
55656;BME280;41530;52.382;5.270;2023-02-13T08:11:06;104005.19;;;15.09;54.22
55656;BME280;41530;52.382;5.270;2023-02-13T08:13:52;103999.13;;;15.05;54.30
55656;BME280;41530;52.382;5.270;2023-02-13T08:16:18;104001.78;;;15.05;54.16
55656;BME280;41530;52.382;5.270;2023-02-13T08:18:45;104003.44;;;15.08;54.12
55656;BME280;41530;52.382;5.270;2023-02-13T08:21:12;104007.84;;;15.09;54.07
55656;BME280;41530;52.382;5.270;2023-02-13T08:23:40;104006.16;;;15.06;54.01
55656;BME280;41530;52.382;5.270;2023-02-13T08:26:07;103999.31;;;15.01;54.13
55656;BME280;41530;52.382;5.270;2023-02-13T08:28:33;104008.03;;;15.04;54.19
55656;BME280;41530;52.382;5.270;2023-02-13T08:31:00;104013.13;;;15.09;54.12
55656;BME280;41530;52.382;5.270;2023-02-13T08:33:27;104010.50;;;15.09;53.76
55656;BME280;41530;52.382;5.270;2023-02-13T08:35:53;103998.25;;;15.05;53.89
55656;BME280;41530;52.382;5.270;2023-02-13T08:38:20;103998.25;;;15.05;53.74
55656;BME280;41530;52.382;5.270;2023-02-13T08:40:47;104002.66;;;15.06;53.89
55656;BME280;41530;52.382;5.270;2023-02-13T08:43:13;103999.13;;;15.05;53.78
55656;BME280;41530;52.382;5.270;2023-02-13T08:45:40;104003.44;;;15.08;54.03
55656;BME280;41530;52.382;5.270;2023-02-13T08:48:07;104003.56;;;15.05;53.91
55656;BME280;41530;52.382;5.270;2023-02-13T08:50:33;104000.84;;;15.06;54.09
55656;BME280;41530;52.382;5.270;2023-02-13T08:53:03;104001.78;;;15.05;54.23
55656;BME280;41530;52.382;5.270;2023-02-13T08:55:29;104010.44;;;15.10;54.08
55656;BME280;41530;52.382;5.270;2023-02-13T08:58:03;104007.84;;;15.09;53.81
55656;BME280;41530;52.382;5.270;2023-02-13T09:00:30;104002.47;;;15.10;53.76
55656;BME280;41530;52.382;5.270;2023-02-13T09:03:01;103990.50;;;15.00;54.01
55656;BME280;41530;52.382;5.270;2023-02-13T09:05:28;104014.81;;;15.11;54.17
55656;BME280;41530;52.382;5.270;2023-02-13T09:08:01;104007.78;;;15.10;54.17
55656;BME280;41530;52.382;5.270;2023-02-13T09:10:30;103997.16;;;15.10;53.81
55656;BME280;41530;52.382;5.270;2023-02-13T09:12:57;104010.44;;;15.10;53.69
55656;BME280;41530;52.382;5.270;2023-02-13T09:15:23;104006.00;;;15.11;53.64
55656;BME280;41530;52.382;5.270;2023-02-13T09:17:50;104000.69;;;15.11;53.74
55656;BME280;41530;52.382;5.270;2023-02-13T09:20:16;104005.06;;;15.12;54.03
55656;BME280;41530;52.382;5.270;2023-02-13T09:22:43;104003.41;;;15.09;53.88
55656;BME280;41530;52.382;5.270;2023-02-13T09:25:10;103996.25;;;15.11;53.75
55656;BME280;41530;52.382;5.270;2023-02-13T09:27:36;104001.50;;;15.13;53.82
55656;BME280;41530;52.382;5.270;2023-02-13T09:30:09;103999.94;;;15.07;53.82
55656;BME280;41530;52.382;5.270;2023-02-13T09:32:36;103995.50;;;15.08;53.88
55656;BME280;41530;52.382;5.270;2023-02-13T09:35:05;104004.22;;;15.11;53.78
55656;BME280;41530;52.382;5.270;2023-02-13T09:37:32;104011.19;;;15.14;53.68
55656;BME280;41530;52.382;5.270;2023-02-13T09:39:58;103999.00;;;15.08;53.80
55656;BME280;41530;52.382;5.270;2023-02-13T09:42:28;104005.03;;;15.13;53.89
55656;BME280;41530;52.382;5.270;2023-02-13T09:44:59;104005.03;;;15.13;53.85
55656;BME280;41530;52.382;5.270;2023-02-13T09:47:33;103994.56;;;15.09;53.88
55656;BME280;41530;52.382;5.270;2023-02-13T09:52:35;104002.38;;;15.13;53.80
55656;BME280;41530;52.382;5.270;2023-02-13T09:55:17;103997.16;;;15.10;53.80
55656;BME280;41530;52.382;5.270;2023-02-13T10:00:39;103999.78;;;15.12;53.64
55656;BME280;41530;52.382;5.270;2023-02-13T10:03:17;104006.69;;;15.16;53.94
55656;BME280;41530;52.382;5.270;2023-02-13T10:11:15;104004.84;;;15.18;53.60
55656;BME280;41530;52.382;5.270;2023-02-13T10:17:29;103991.59;;;15.18;54.20
55656;BME280;41530;52.382;5.270;2023-02-13T10:20:24;103990.78;;;15.16;53.77
55656;BME280;41530;52.382;5.270;2023-02-13T10:22:52;103999.47;;;15.19;54.02
55656;BME280;41530;52.382;5.270;2023-02-13T10:25:29;103991.50;;;15.19;53.75
55656;BME280;41530;52.382;5.270;2023-02-13T10:28:06;103980.16;;;15.16;53.60
55656;BME280;41530;52.382;5.270;2023-02-13T10:30:49;103986.19;;;15.19;53.90
55656;BME280;41530;52.382;5.270;2023-02-13T10:33:22;103986.09;;;15.22;53.56
55656;BME280;41530;52.382;5.270;2023-02-13T10:38:43;103987.00;;;15.21;53.49
55656;BME280;41530;52.382;5.270;2023-02-13T10:41:24;103989.66;;;15.21;53.66
55656;BME280;41530;52.382;5.270;2023-02-13T10:46:43;103994.78;;;15.26;53.87
55656;BME280;41530;52.382;5.270;2023-02-13T10:52:20;103982.41;;;15.26;53.52
55656;BME280;41530;52.382;5.270;2023-02-13T10:57:56;103979.75;;;15.26;53.56
55656;BME280;41530;52.382;5.270;2023-02-13T11:00:54;103974.44;;;15.26;53.66
55656;BME280;41530;52.382;5.270;2023-02-13T11:03:26;103966.59;;;15.23;53.61
55656;BME280;41530;52.382;5.270;2023-02-13T11:05:54;103974.31;;;15.29;53.52
55656;BME280;41530;52.382;5.270;2023-02-13T11:08:32;103976.91;;;15.31;53.72
55656;BME280;41530;52.382;5.270;2023-02-13T11:10:59;103978.63;;;15.32;53.71
55656;BME280;41530;52.382;5.270;2023-02-13T11:13:28;103965.44;;;15.30;53.37
55656;BME280;41530;52.382;5.270;2023-02-13T11:16:08;103966.97;;;15.36;53.48
55656;BME280;41530;52.382;5.270;2023-02-13T11:18:40;103960.75;;;15.37;53.78
55656;BME280;41530;52.382;5.270;2023-02-13T11:21:15;103952.91;;;15.34;53.77
55656;BME280;41530;52.382;5.270;2023-02-13T11:23:44;103953.53;;;15.41;53.86
55656;BME280;41530;52.382;5.270;2023-02-13T11:26:29;103956.19;;;15.41;53.25
55656;BME280;41530;52.382;5.270;2023-02-13T11:28:59;103953.47;;;15.42;53.47
55656;BME280;41530;52.382;5.270;2023-02-13T11:33:56;103942.69;;;15.45;53.49
55656;BME280;41530;52.382;5.270;2023-02-13T11:39:16;103943.56;;;15.46;53.66
55656;BME280;41530;52.382;5.270;2023-02-13T11:41:45;103929.38;;;15.47;53.82
55656;BME280;41530;52.382;5.270;2023-02-13T11:44:25;103934.63;;;15.48;53.55
55656;BME280;41530;52.382;5.270;2023-02-13T11:46:54;103916.97;;;15.47;53.55
55656;BME280;41530;52.382;5.270;2023-02-13T11:49:32;103919.63;;;15.47;53.29
55656;BME280;41530;52.382;5.270;2023-02-13T11:52:03;103915.94;;;15.51;53.54
55656;BME280;41530;52.382;5.270;2023-02-13T11:57:01;103904.31;;;15.54;53.63
55656;BME280;41530;52.382;5.270;2023-02-13T11:59:38;103905.19;;;15.54;53.35
55656;BME280;41530;52.382;5.270;2023-02-13T12:02:15;103907.84;;;15.54;53.58
55656;BME280;41530;52.382;5.270;2023-02-13T12:04:43;103901.69;;;15.54;53.29
55656;BME280;41530;52.382;5.270;2023-02-13T12:09:45;103891.91;;;15.56;53.53
55656;BME280;41530;52.382;5.270;2023-02-13T12:12:24;103898.84;;;15.58;54.02
55656;BME280;41530;52.382;5.270;2023-02-13T12:14:54;103894.56;;;15.56;53.44
55656;BME280;41530;52.382;5.270;2023-02-13T12:17:22;103897.91;;;15.59;53.42
55656;BME280;41530;52.382;5.270;2023-02-13T12:19:57;103888.31;;;15.57;53.39
55656;BME280;41530;52.382;5.270;2023-02-13T12:25:45;103890.06;;;15.58;53.50
55656;BME280;41530;52.382;5.270;2023-02-13T12:36:56;103885.31;;;15.64;53.51
55656;BME280;41530;52.382;5.270;2023-02-13T12:42:21;103895.81;;;15.67;53.43
55656;BME280;41530;52.382;5.270;2023-02-13T12:45:09;103889.59;;;15.68;53.17
55656;BME280;41530;52.382;5.270;2023-02-13T12:50:34;103883.34;;;15.70;53.47
55656;BME280;41530;52.382;5.270;2023-02-13T13:09:43;103863.56;;;15.77;53.32
55656;BME280;41530;52.382;5.270;2023-02-13T13:12:38;103857.31;;;15.78;53.29
55656;BME280;41530;52.382;5.270;2023-02-13T13:18:39;103842.25;;;15.78;53.15
55656;BME280;41530;52.382;5.270;2023-02-13T13:26:48;103837.75;;;15.80;53.10
55656;BME280;41530;52.382;5.270;2023-02-13T13:29:23;103825.22;;;15.84;53.54
55656;BME280;41530;52.382;5.270;2023-02-13T13:31:58;103834.88;;;15.85;53.21
55656;BME280;41530;52.382;5.270;2023-02-13T13:34:27;103819.09;;;15.82;53.19
55656;BME280;41530;52.382;5.270;2023-02-13T13:37:01;103825.91;;;15.87;53.19
55656;BME280;41530;52.382;5.270;2023-02-13T13:42:23;103820.53;;;15.89;53.30
55656;BME280;41530;52.382;5.270;2023-02-13T13:50:03;103813.31;;;15.92;53.26
55656;BME280;41530;52.382;5.270;2023-02-13T13:52:35;103814.97;;;15.95;53.31
55656;BME280;41530;52.382;5.270;2023-02-13T13:55:05;103799.16;;;15.92;53.43
55656;BME280;41530;52.382;5.270;2023-02-13T14:00:00;103801.53;;;15.98;53.24
55656;BME280;41530;52.382;5.270;2023-02-13T14:07:40;103799.59;;;16.01;53.19
55656;BME280;41530;52.382;5.270;2023-02-13T14:20:36;103792.28;;;16.07;53.35
55656;BME280;41530;52.382;5.270;2023-02-13T14:23:20;103786.97;;;16.07;53.31
55656;BME280;41530;52.382;5.270;2023-02-13T14:25:49;103779.06;;;16.05;53.38
55656;BME280;41530;52.382;5.270;2023-02-13T14:28:25;103786.84;;;16.10;53.40
55656;BME280;41530;52.382;5.270;2023-02-13T14:31:05;103777.22;;;16.07;53.53
55656;BME280;41530;52.382;5.270;2023-02-13T14:33:33;103791.13;;;16.12;53.32
55656;BME280;41530;52.382;5.270;2023-02-13T14:36:06;103782.41;;;16.10;53.13
55656;BME280;41530;52.382;5.270;2023-02-13T14:38:35;103775.28;;;16.11;53.34
55656;BME280;41530;52.382;5.270;2023-02-13T14:41:02;103787.47;;;16.15;53.25
55656;BME280;41530;52.382;5.270;2023-02-13T14:43:51;103789.19;;;16.16;53.43
55656;BME280;41530;52.382;5.270;2023-02-13T14:46:48;103786.53;;;16.16;53.38
55656;BME280;41530;52.382;5.270;2023-02-13T14:49:22;103782.09;;;16.16;53.36
55656;BME280;41530;52.382;5.270;2023-02-13T14:51:54;103783.69;;;16.20;53.37
55656;BME280;41530;52.382;5.270;2023-02-13T14:54:29;103781.81;;;16.22;53.18
55656;BME280;41530;52.382;5.270;2023-02-13T14:57:16;103777.50;;;16.20;53.42
55656;BME280;41530;52.382;5.270;2023-02-13T14:59:49;103776.50;;;16.22;53.37
55656;BME280;41530;52.382;5.270;2023-02-13T15:04:58;103769.47;;;16.21;53.13
55656;BME280;41530;52.382;5.270;2023-02-13T15:07:34;103779.78;;;16.27;53.28
55656;BME280;41530;52.382;5.270;2023-02-13T15:10:45;103780.66;;;16.28;53.23
55656;BME280;41530;52.382;5.270;2023-02-13T15:12:56;103778.00;;;16.28;53.39
55656;BME280;41530;52.382;5.270;2023-02-13T15:17:57;103779.59;;;16.32;53.30
55656;BME280;41530;52.382;5.270;2023-02-13T15:20:32;103773.41;;;16.31;53.45
55656;BME280;41530;52.382;5.270;2023-02-13T15:22:59;103765.56;;;16.28;53.32
55656;BME280;41530;52.382;5.270;2023-02-13T15:25:39;103770.69;;;16.33;53.25
55656;BME280;41530;52.382;5.270;2023-02-13T15:28:19;103771.53;;;16.33;53.27
55656;BME280;41530;52.382;5.270;2023-02-13T15:30:59;103776.78;;;16.35;53.23
55656;BME280;41530;52.382;5.270;2023-02-13T15:33:32;103759.25;;;16.31;53.48
55656;BME280;41530;52.382;5.270;2023-02-13T15:36:03;103758.34;;;16.32;53.38
55656;BME280;41530;52.382;5.270;2023-02-13T15:38:35;103765.16;;;16.37;53.28
55656;BME280;41530;52.382;5.270;2023-02-13T15:41:05;103771.31;;;16.38;53.44